createdAt,value
2023-04-12T00:00:46.054Z,68.51
2023-04-12T00:03:26.496Z,68.56
2023-04-12T00:06:08.451Z,68.31
2023-04-12T00:08:48.214Z,68.00
2023-04-12T00:11:34.433Z,68.28
2023-04-12T00:14:13.787Z,68.47
2023-04-12T00:16:53.064Z,68.84
2023-04-12T00:19:32.423Z,68.06
2023-04-12T00:22:11.724Z,68.12
2023-04-12T00:24:50.995Z,68.01
2023-04-12T00:27:35.364Z,68.43
2023-04-12T00:30:15.908Z,68.08
2023-04-12T00:32:55.245Z,68.68
2023-04-12T00:35:34.830Z,68.64
2023-04-12T00:38:15.723Z,68.62
2023-04-12T00:40:54.956Z,68.46
2023-04-12T00:43:39.312Z,68.66
2023-04-12T00:46:19.081Z,68.81
2023-04-12T00:48:58.439Z,69.00
2023-04-12T00:51:40.573Z,68.56
2023-04-12T00:54:23.453Z,68.40
2023-04-12T00:57:03.239Z,68.31
2023-04-12T00:59:48.175Z,68.87
2023-04-12T01:02:27.992Z,68.32
2023-04-12T01:05:08.875Z,68.15
2023-04-12T01:07:58.483Z,68.82
2023-04-12T01:10:52.415Z,68.85
2023-04-12T01:13:40.137Z,68.43
2023-04-12T01:16:35.676Z,68.34
2023-04-12T01:19:36.965Z,68.59
2023-04-12T01:22:29.240Z,68.49
2023-04-12T01:25:25.461Z,68.88
2023-04-12T01:28:12.372Z,68.89
2023-04-12T01:30:55.302Z,68.92
2023-04-12T01:33:37.568Z,68.64
2023-04-12T01:36:21.520Z,69.37
2023-04-12T01:39:02.399Z,70.03
2023-04-12T01:41:50.217Z,70.58
2023-04-12T01:44:34.580Z,70.09
2023-04-12T01:47:13.952Z,69.77
2023-04-12T01:50:02.963Z,69.83
2023-04-12T01:52:49.348Z,69.90
2023-04-12T01:55:31.085Z,70.04
2023-04-12T01:58:12.896Z,70.39
2023-04-12T02:00:58.314Z,70.72
2023-04-12T02:03:38.730Z,70.05
2023-04-12T02:06:19.334Z,70.40
2023-04-12T02:09:05.044Z,70.58
2023-04-12T02:11:44.926Z,70.54
2023-04-12T02:14:24.310Z,70.38
2023-04-12T02:17:09.262Z,70.62
2023-04-12T02:19:48.649Z,70.51
2023-04-12T02:22:27.929Z,70.16
2023-04-12T02:25:07.618Z,70.35
2023-04-12T02:27:47.479Z,70.85
2023-04-12T02:30:26.812Z,71.01
2023-04-12T02:33:12.854Z,70.50
2023-04-12T02:35:52.210Z,70.35
2023-04-12T02:38:32.032Z,70.81
2023-04-12T02:41:11.443Z,70.93
2023-04-12T02:43:50.701Z,70.79
2023-04-12T02:46:31.833Z,70.26
2023-04-12T02:49:16.304Z,70.93
2023-04-12T02:51:56.212Z,70.81
2023-04-12T02:54:35.478Z,70.09
2023-04-12T02:57:14.953Z,69.89
2023-04-12T02:59:54.542Z,69.82
2023-04-12T03:02:34.058Z,69.95
2023-04-12T03:05:18.847Z,70.26
2023-04-12T03:07:58.375Z,70.58
2023-04-12T03:10:37.646Z,70.83
2023-04-12T03:13:16.992Z,70.75
2023-04-12T03:15:56.595Z,70.85
2023-04-12T03:18:35.970Z,71.36
2023-04-12T03:21:20.460Z,71.63
2023-04-12T03:23:59.774Z,71.63
2023-04-12T03:26:39.132Z,72.07
2023-04-12T03:29:18.406Z,71.53
2023-04-12T03:31:59.230Z,72.46
2023-04-12T03:34:38.520Z,72.13
2023-04-12T03:37:22.927Z,72.15
2023-04-12T03:40:02.435Z,72.53
2023-04-12T03:42:41.783Z,72.56
2023-04-12T03:45:21.125Z,72.49
2023-04-12T03:48:00.505Z,72.45
2023-04-12T03:50:45.733Z,72.58
2023-04-12T03:53:32.005Z,72.63
2023-04-12T03:56:11.432Z,72.81
2023-04-12T03:58:50.696Z,72.60
2023-04-12T04:01:30.253Z,72.44
2023-04-12T04:04:10.574Z,72.73
2023-04-12T04:06:50.054Z,72.71
2023-04-12T04:09:34.462Z,73.31
2023-04-12T04:12:14.418Z,73.43
2023-04-12T04:14:53.825Z,73.61
2023-04-12T04:17:33.142Z,73.70
2023-04-12T04:20:14.781Z,73.47
2023-04-12T04:22:54.677Z,73.64
2023-04-12T04:25:40.507Z,74.47
2023-04-12T04:28:19.861Z,74.50
2023-04-12T04:30:59.168Z,74.62
2023-04-12T04:33:38.867Z,74.12
2023-04-12T04:36:19.478Z,74.18
2023-04-12T04:38:58.814Z,74.59
2023-04-12T04:41:43.631Z,74.77
2023-04-12T04:44:23.000Z,75.41
2023-04-12T04:47:02.521Z,75.57
2023-04-12T04:49:42.500Z,75.00
2023-04-12T04:52:22.219Z,75.23
2023-04-12T04:55:04.071Z,75.04
2023-04-12T04:57:50.150Z,75.26
2023-04-12T05:00:30.021Z,75.50
2023-04-12T05:03:10.199Z,75.40
2023-04-12T05:05:49.733Z,75.67
2023-04-12T05:08:29.831Z,75.47
2023-04-12T05:11:09.103Z,75.16
2023-04-12T05:13:53.489Z,75.46
2023-04-12T05:16:32.816Z,75.66
2023-04-12T05:19:12.195Z,75.80
2023-04-12T05:21:51.570Z,75.69
2023-04-12T05:24:30.969Z,76.28
2023-04-12T05:27:10.505Z,76.51
2023-04-12T05:29:55.083Z,75.95
2023-04-12T05:32:34.390Z,75.66
2023-04-12T05:35:14.128Z,76.05
2023-04-12T05:37:53.797Z,76.08
2023-04-12T05:40:33.408Z,76.14
2023-04-12T05:43:14.041Z,75.75
2023-04-12T05:45:58.860Z,75.97
2023-04-12T05:48:40.299Z,76.18
2023-04-12T05:51:25.194Z,76.62
2023-04-12T05:54:10.342Z,76.34
2023-04-12T05:56:49.660Z,76.31
2023-04-12T05:59:29.107Z,76.07
2023-04-12T06:02:14.346Z,76.19
2023-04-12T06:04:54.867Z,76.76
2023-04-12T06:07:34.535Z,77.25
2023-04-12T06:10:15.486Z,77.38
2023-04-12T06:12:54.880Z,77.54
2023-04-12T06:15:34.822Z,77.68
2023-04-12T06:18:19.657Z,77.74
2023-04-12T06:20:59.013Z,78.02
2023-04-12T06:23:38.356Z,77.86
2023-04-12T06:26:18.713Z,77.78
2023-04-12T06:28:58.423Z,77.92
2023-04-12T06:31:40.078Z,78.19
2023-04-12T06:34:24.442Z,78.33
2023-04-12T06:37:03.934Z,78.76
2023-04-12T06:39:43.429Z,78.70
2023-04-12T06:42:23.325Z,78.43
2023-04-12T06:45:02.674Z,78.38
2023-04-12T06:47:41.979Z,78.05
2023-04-12T06:50:26.531Z,77.90
2023-04-12T06:53:06.049Z,78.16
2023-04-12T06:55:45.449Z,78.10
2023-04-12T06:58:25.616Z,78.09
2023-04-12T07:01:12.834Z,77.86
2023-04-12T07:03:52.641Z,77.72
2023-04-12T07:06:37.117Z,77.93
2023-04-12T07:09:16.950Z,77.86
2023-04-12T07:11:56.354Z,77.79
2023-04-12T07:14:35.839Z,77.87
2023-04-12T07:17:15.199Z,77.73
2023-04-12T07:19:55.093Z,78.31
2023-04-12T07:22:39.648Z,78.30
2023-04-12T07:25:18.988Z,77.78
2023-04-12T07:27:58.315Z,77.83
2023-04-12T07:30:37.620Z,77.71
2023-04-12T07:33:19.910Z,77.53
2023-04-12T07:35:59.643Z,77.41
2023-04-12T07:38:44.115Z,77.59
2023-04-12T07:41:23.417Z,77.19
2023-04-12T07:44:02.998Z,77.23
2023-04-12T07:46:43.108Z,77.51
2023-04-12T07:49:22.417Z,77.82
2023-04-12T07:52:01.794Z,77.56
2023-04-12T07:54:46.185Z,77.53
2023-04-12T07:57:25.538Z,77.67
2023-04-12T08:00:07.749Z,77.43
2023-04-12T08:02:47.339Z,77.43
2023-04-12T08:05:26.838Z,77.64
2023-04-12T08:08:06.197Z,77.45
2023-04-12T08:10:50.744Z,77.88
2023-04-12T08:13:30.305Z,77.64
2023-04-12T08:16:10.397Z,77.26
2023-04-12T08:18:49.735Z,77.42
2023-04-12T08:21:29.054Z,77.29
2023-04-12T08:24:08.400Z,77.62
2023-04-12T08:26:52.751Z,78.15
2023-04-12T08:29:32.228Z,77.53
2023-04-12T08:32:13.770Z,77.32
2023-04-12T08:34:53.449Z,77.30
2023-04-12T08:37:32.947Z,77.16
2023-04-12T08:40:15.144Z,76.63
2023-04-12T08:43:00.615Z,76.80
2023-04-12T08:45:43.276Z,77.16
2023-04-12T08:48:23.803Z,76.92
2023-04-12T08:51:04.560Z,76.84
2023-04-12T08:53:44.032Z,76.41
2023-04-12T08:56:24.218Z,76.53
2023-04-12T08:59:10.218Z,77.29
2023-04-12T09:01:49.652Z,77.67
2023-04-12T09:04:29.254Z,77.39
2023-04-12T09:07:08.820Z,77.14
2023-04-12T09:09:49.836Z,76.97
2023-04-12T09:12:29.269Z,76.87
2023-04-12T09:15:21.966Z,76.86
2023-04-12T09:18:13.446Z,76.47
2023-04-12T09:20:54.423Z,76.74
2023-04-12T09:23:34.425Z,76.79
2023-04-12T09:26:13.768Z,77.06
2023-04-12T09:28:53.061Z,76.52
2023-04-12T09:31:37.934Z,77.49
2023-04-12T09:34:17.643Z,77.34
2023-04-12T09:36:57.077Z,76.51
2023-04-12T09:39:40.721Z,76.62
2023-04-12T09:42:33.272Z,76.12
2023-04-12T09:45:29.332Z,76.42
2023-04-12T09:48:14.764Z,75.79
2023-04-12T09:50:54.100Z,76.92
2023-04-12T09:53:33.558Z,77.59
2023-04-12T09:56:14.584Z,77.50
2023-04-12T09:58:56.445Z,76.96
2023-04-12T10:01:37.588Z,77.11
2023-04-12T10:04:22.501Z,76.81
2023-04-12T10:07:02.881Z,77.00
2023-04-12T10:09:45.381Z,77.00
2023-04-12T10:12:25.997Z,75.45
2023-04-12T10:15:07.274Z,74.67
2023-04-12T10:17:50.524Z,75.25
2023-04-12T10:20:35.053Z,74.99
2023-04-12T10:23:15.718Z,74.80
2023-04-12T10:25:58.268Z,75.31
2023-04-12T10:28:38.092Z,74.79
2023-04-12T10:31:36.490Z,74.74
2023-04-12T10:34:16.745Z,75.07
2023-04-12T10:37:06.174Z,73.46
2023-04-12T10:39:48.632Z,72.57
2023-04-12T10:42:31.918Z,72.67
2023-04-12T10:45:41.670Z,70.91
2023-04-12T10:48:37.093Z,69.29
2023-04-12T10:51:24.601Z,69.96
2023-04-12T10:54:41.651Z,70.27
2023-04-12T10:57:50.913Z,70.59
2023-04-12T11:00:30.327Z,70.93
2023-04-12T11:03:19.574Z,71.18
2023-04-12T11:06:24.093Z,70.52
2023-04-12T11:09:07.431Z,71.03
2023-04-12T11:11:52.594Z,70.71
2023-04-12T11:14:36.806Z,71.30
2023-04-12T11:17:33.456Z,71.84
2023-04-12T11:20:19.124Z,72.28
2023-04-12T11:23:02.131Z,72.32
2023-04-12T11:25:42.439Z,72.20
2023-04-12T11:28:31.745Z,72.54
2023-04-12T11:31:13.850Z,72.57
2023-04-12T11:33:53.193Z,73.00
2023-04-12T11:36:33.189Z,72.85
2023-04-12T11:39:12.561Z,72.78
2023-04-12T11:41:52.231Z,72.88
2023-04-12T11:44:52.498Z,71.90
2023-04-12T11:47:35.787Z,72.29
2023-04-12T11:50:17.127Z,71.98
2023-04-12T11:52:56.610Z,72.50
2023-04-12T11:55:35.968Z,71.96
2023-04-12T11:58:15.356Z,72.80
2023-04-12T12:01:01.133Z,72.82
2023-04-12T12:03:41.304Z,73.01
2023-04-12T12:06:21.875Z,73.13
2023-04-12T12:09:03.530Z,73.43
2023-04-12T12:11:42.934Z,73.72
2023-04-12T12:14:27.345Z,73.81
2023-04-12T12:17:18.365Z,73.96
2023-04-12T12:19:57.771Z,74.47
2023-04-12T12:22:37.115Z,73.84
2023-04-12T12:25:18.793Z,73.47
2023-04-12T12:28:06.520Z,73.72
2023-04-12T12:30:46.548Z,73.06
2023-04-12T12:33:45.033Z,73.47
2023-04-12T12:36:27.536Z,72.84
2023-04-12T12:39:12.851Z,72.78
2023-04-12T12:42:02.123Z,73.44
2023-04-12T12:44:41.423Z,73.48
2023-04-12T12:47:20.764Z,73.17
2023-04-12T12:50:05.211Z,74.36
2023-04-12T12:52:44.514Z,73.87
2023-04-12T12:55:24.958Z,72.76
2023-04-12T12:58:07.526Z,73.13
2023-04-12T13:00:47.772Z,73.33
2023-04-12T13:03:27.316Z,72.75
2023-04-12T13:06:12.643Z,72.67
2023-04-12T13:08:53.500Z,72.69
2023-04-12T13:11:33.399Z,72.69
2023-04-12T13:14:12.704Z,73.32
2023-04-12T13:16:52.147Z,73.26
2023-04-12T13:19:31.613Z,73.27
2023-04-12T13:22:16.002Z,73.31
2023-04-12T13:24:56.366Z,73.75
2023-04-12T13:27:35.653Z,72.75
2023-04-12T13:30:16.175Z,70.54
2023-04-12T13:32:56.375Z,68.46
2023-04-12T13:35:35.704Z,68.11
2023-04-12T13:38:20.081Z,67.45
2023-04-12T13:40:59.420Z,67.07
2023-04-12T13:43:38.766Z,67.90
2023-04-12T13:46:18.101Z,67.97
2023-04-12T13:48:57.670Z,68.37
2023-04-12T13:51:37.207Z,69.64
2023-04-12T13:54:21.926Z,70.29
2023-04-12T13:57:01.276Z,70.88
2023-04-12T13:59:40.667Z,71.36
2023-04-12T14:02:20.089Z,71.23
2023-04-12T14:05:01.486Z,71.94
2023-04-12T14:07:40.943Z,72.34
2023-04-12T14:10:25.370Z,71.09
2023-04-12T14:13:04.743Z,70.67
2023-04-12T14:15:44.027Z,70.68
2023-04-12T14:18:23.342Z,70.30
2023-04-12T14:21:04.294Z,69.76
2023-04-12T14:23:43.654Z,69.70
2023-04-12T14:26:28.665Z,69.89
2023-04-12T14:29:07.975Z,69.16
2023-04-12T14:31:47.321Z,69.45
2023-04-12T14:34:26.782Z,69.88
2023-04-12T14:37:07.050Z,70.74
2023-04-12T14:39:46.662Z,69.77
2023-04-12T14:42:31.070Z,69.98
2023-04-12T14:45:11.407Z,69.74
2023-04-12T14:47:50.730Z,69.68
2023-04-12T14:50:30.908Z,68.54
2023-04-12T14:53:10.830Z,68.65
2023-04-12T14:55:52.475Z,68.70
2023-04-12T14:58:37.326Z,69.57
2023-04-12T15:01:19.639Z,69.20
2023-04-12T15:04:02.387Z,68.36
2023-04-12T15:06:43.798Z,69.06
2023-04-12T15:09:23.713Z,68.56
2023-04-12T15:12:03.098Z,68.68
2023-04-12T15:14:47.693Z,67.31
2023-04-12T15:17:27.018Z,66.29
2023-04-12T15:20:10.155Z,67.13
2023-04-12T15:22:49.655Z,67.32
2023-04-12T15:25:29.508Z,68.74
2023-04-12T15:28:08.764Z,68.49
2023-04-12T15:30:53.124Z,69.57
2023-04-12T15:33:35.721Z,71.53
2023-04-12T15:36:18.070Z,71.31
2023-04-12T15:38:57.343Z,68.07
2023-04-12T15:41:43.119Z,69.37
2023-04-12T15:44:25.503Z,68.91
2023-04-12T15:47:11.964Z,68.55
2023-04-12T15:49:51.479Z,68.02
2023-04-12T15:52:31.018Z,67.08
2023-04-12T15:55:12.906Z,67.52
2023-04-12T15:57:52.197Z,66.86
2023-04-12T16:00:32.100Z,67.07
2023-04-12T16:03:18.809Z,65.33
2023-04-12T16:05:58.966Z,64.54
2023-04-12T16:08:38.291Z,64.42
2023-04-12T16:11:18.363Z,64.58
2023-04-12T16:13:58.563Z,65.10
2023-04-12T16:16:37.992Z,64.59
2023-04-12T16:19:22.377Z,64.23
2023-04-12T16:22:01.762Z,64.72
2023-04-12T16:24:41.196Z,64.80
2023-04-12T16:27:23.110Z,65.17
2023-04-12T16:30:03.222Z,65.26
2023-04-12T16:32:43.466Z,63.47
2023-04-12T16:35:27.984Z,64.49
2023-04-12T16:38:07.833Z,64.69
2023-04-12T16:40:47.412Z,63.67
2023-04-12T16:43:26.779Z,63.37
2023-04-12T16:46:11.820Z,63.65
2023-04-12T16:48:51.060Z,63.81
2023-04-12T16:51:37.251Z,63.99
2023-04-12T16:54:16.946Z,63.59
2023-04-12T16:56:57.638Z,62.74
2023-04-12T16:59:40.762Z,61.93
2023-04-12T17:02:20.491Z,60.50
2023-04-12T17:04:59.813Z,60.23
2023-04-12T17:07:44.316Z,60.18
2023-04-12T17:10:24.560Z,59.34
2023-04-12T17:13:05.617Z,59.60
2023-04-12T17:15:44.930Z,59.56
2023-04-12T17:18:24.284Z,59.11
2023-04-12T17:21:03.669Z,59.42
2023-04-12T17:23:48.049Z,59.01
2023-04-12T17:26:28.473Z,59.67
2023-04-12T17:29:08.154Z,59.72
2023-04-12T17:31:47.827Z,59.65
2023-04-12T17:34:27.381Z,59.61
2023-04-12T17:37:07.320Z,59.78
2023-04-12T17:39:51.666Z,59.93
2023-04-12T17:42:30.992Z,60.19
2023-04-12T17:45:12.377Z,59.97
2023-04-12T17:47:51.797Z,60.41
2023-04-12T17:50:31.480Z,60.01
2023-04-12T17:53:10.783Z,60.92
2023-04-12T17:55:55.115Z,61.21
2023-04-12T17:58:34.933Z,61.21
2023-04-12T18:01:14.221Z,61.91
2023-04-12T18:03:54.159Z,62.55
2023-04-12T18:06:33.684Z,62.97
2023-04-12T18:09:13.178Z,63.55
2023-04-12T18:11:58.785Z,64.16
2023-04-12T18:14:38.175Z,64.49
2023-04-12T18:17:17.790Z,65.06
2023-04-12T18:19:57.125Z,65.61
2023-04-12T18:22:36.370Z,66.27
2023-04-12T18:25:17.877Z,66.75
2023-04-12T18:28:02.204Z,67.31
2023-04-12T18:30:42.229Z,67.37
2023-04-12T18:33:21.527Z,67.45
2023-04-12T18:36:00.811Z,67.71
2023-04-12T18:38:40.240Z,67.92
2023-04-12T18:41:20.044Z,68.06
2023-04-12T18:44:04.482Z,68.44
2023-04-12T18:46:43.871Z,68.47
2023-04-12T18:49:23.204Z,68.51
2023-04-12T18:52:03.224Z,68.52
2023-04-12T18:54:42.586Z,68.59
2023-04-12T18:57:23.160Z,68.37
2023-04-12T19:00:08.095Z,68.49
2023-04-12T19:02:47.660Z,68.75
2023-04-12T19:05:27.623Z,68.90
2023-04-12T19:08:08.009Z,68.88
2023-04-12T19:10:47.936Z,68.75
2023-04-12T19:13:27.959Z,69.17
2023-04-12T19:16:13.873Z,69.20
2023-04-12T19:18:53.309Z,69.65
2023-04-12T19:21:34.146Z,69.99
2023-04-12T19:24:14.043Z,70.26
2023-04-12T19:26:53.301Z,70.17
2023-04-12T19:29:32.601Z,70.38
2023-04-12T19:32:17.770Z,70.51
2023-04-12T19:34:57.959Z,70.35
2023-04-12T19:37:37.915Z,70.13
2023-04-12T19:40:19.533Z,70.25
2023-04-12T19:42:58.857Z,70.10
2023-04-12T19:45:39.906Z,70.08
2023-04-12T19:48:24.383Z,69.98
2023-04-12T19:51:03.725Z,69.91
2023-04-12T19:53:43.189Z,69.99
2023-04-12T19:56:25.116Z,70.09
2023-04-12T19:59:06.747Z,70.11
2023-04-12T20:01:49.514Z,70.22
2023-04-12T20:04:34.535Z,70.19
2023-04-12T20:07:13.936Z,70.89
2023-04-12T20:09:53.202Z,71.07
2023-04-12T20:12:34.399Z,70.53
2023-04-12T20:15:15.358Z,69.61
2023-04-12T20:17:56.358Z,68.14
2023-04-12T20:20:40.729Z,70.73
2023-04-12T20:23:21.027Z,71.29
2023-04-12T20:26:00.288Z,69.26
2023-04-12T20:28:39.744Z,67.88
2023-04-12T20:31:19.393Z,67.76
2023-04-12T20:33:59.465Z,67.49
2023-04-12T20:36:44.735Z,67.35
2023-04-12T20:39:24.374Z,67.30
2023-04-12T20:42:03.815Z,66.95
2023-04-12T20:44:43.652Z,68.05
2023-04-12T20:47:23.582Z,68.20
2023-04-12T20:50:03.151Z,68.66
2023-04-12T20:52:48.614Z,69.06
2023-04-12T20:55:33.741Z,69.42
2023-04-12T20:58:13.341Z,69.19
2023-04-12T21:00:53.194Z,69.06
2023-04-12T21:03:32.611Z,68.85
2023-04-12T21:06:13.151Z,69.26
2023-04-12T21:08:57.679Z,69.48
2023-04-12T21:11:37.976Z,69.73
2023-04-12T21:14:17.413Z,69.72
2023-04-12T21:16:56.827Z,69.72
2023-04-12T21:19:42.938Z,69.63
2023-04-12T21:22:22.245Z,69.70
2023-04-12T21:25:08.482Z,70.56
2023-04-12T21:27:48.951Z,70.12
2023-04-12T21:30:28.303Z,70.57
2023-04-12T21:33:07.582Z,70.79
2023-04-12T21:35:47.382Z,71.34
2023-04-12T21:38:26.781Z,71.62
2023-04-12T21:41:18.616Z,72.34
2023-04-12T21:43:58.237Z,72.67
2023-04-12T21:46:37.518Z,73.15
2023-04-12T21:49:16.939Z,73.35
2023-04-12T21:51:58.221Z,72.88
2023-04-12T21:54:38.114Z,72.96
2023-04-12T21:57:22.813Z,72.96
2023-04-12T22:00:02.359Z,72.67
2023-04-12T22:02:41.926Z,72.68
2023-04-12T22:05:21.320Z,72.88
2023-04-12T22:08:00.982Z,72.39
2023-04-12T22:10:40.496Z,72.17
2023-04-12T22:13:24.966Z,71.96
2023-04-12T22:16:04.262Z,72.24
2023-04-12T22:18:43.865Z,72.02
2023-04-12T22:21:23.904Z,71.75
2023-04-12T22:24:03.165Z,71.00
2023-04-12T22:26:42.387Z,70.02
2023-04-12T22:29:26.717Z,70.78
2023-04-12T22:32:05.978Z,70.10
2023-04-12T22:34:45.828Z,69.92
2023-04-12T22:37:26.791Z,70.58
2023-04-12T22:40:12.653Z,70.55
2023-04-12T22:42:52.415Z,70.38
2023-04-12T22:45:37.040Z,71.42
2023-04-12T22:48:16.696Z,70.93
2023-04-12T22:50:56.015Z,71.17
2023-04-12T22:53:35.620Z,71.01
2023-04-12T22:56:15.616Z,70.82
2023-04-12T22:58:55.011Z,70.41
2023-04-12T23:01:39.360Z,71.06
2023-04-12T23:04:19.688Z,70.94
2023-04-12T23:07:02.578Z,70.28
2023-04-12T23:09:42.374Z,70.31
2023-04-12T23:12:21.727Z,69.26
2023-04-12T23:15:01.008Z,69.07
2023-04-12T23:17:45.347Z,68.26
2023-04-12T23:20:26.240Z,68.17
2023-04-12T23:23:05.534Z,68.73
2023-04-12T23:25:45.918Z,67.42
2023-04-12T23:28:27.648Z,66.30
2023-04-12T23:31:08.232Z,66.34
2023-04-12T23:33:53.330Z,65.28
2023-04-12T23:36:32.585Z,65.72
2023-04-12T23:39:11.862Z,66.96
2023-04-12T23:41:52.244Z,67.46
2023-04-12T23:44:31.472Z,68.24
2023-04-12T23:47:10.956Z,70.00
2023-04-12T23:49:55.222Z,70.24
2023-04-12T23:52:34.501Z,69.39
2023-04-12T23:55:15.492Z,68.72
2023-04-12T23:57:54.770Z,64.83
